New Pittsburgh, Ohio
Current Conditions -  °F | °C
As of 7:52 PM on Friday 24 Oct 2014 (Local Time) from KMFD Reporting Station
Overcast Overcast  
Wind Chill: 56°   Ceiling: 4200
Heat Index: 56°   Visibility: 10mi
Dew Point: 42°   Wind: 3mph
Humidity: 60%   Direction: 220°SW
Pressure: 30.02"   Gusts: NA
Location:  40.9918°N, 82.6827°W
Report Text: KMFD 242352Z 22003KT 10SM OVC042 13/06 A3002 RMK AO2 SLP170 T01330056 10172 20133 53002
Loading
Personal Weather Stations






























Interactive Weather Map
Tropical Storm Tracking
New forecast layout! Learn more

10-Day Weather Forecast

Advertisements
Track Severe Weather on mobile